Time;durP1;ratioP1;P1;durP2;ratioP2;P2;SDS_P1;SDS_P2;PMS_P1;PMS_P2;Temp;Humidity;BMP_temperature;BMP_pressure;BME280_temperature;BME280_humidity;BME280_pressure;Samples;Min_cycle;Max_cycle;Signal;HPM_P1;HPM_P2
2021/03/05 00:00:29;;;;;;;18.97;13.00;;;;;;;5.43;100.00;95914.72;1284428;23;20004;-72
2021/03/05 00:01:00;;;;;;;16.10;11.70;;;;;;;5.47;100.00;95912.38;1284477;23;20016;-73
2021/03/05 00:01:30;;;;;;;19.03;12.73;;;;;;;5.45;100.00;95912.63;1284234;23;19996;-73
2021/03/05 00:02:00;;;;;;;19.93;12.83;;;;;;;5.45;100.00;95909.16;1284334;23;20043;-73
2021/03/05 00:02:31;;;;;;;20.87;13.60;;;;;;;5.43;100.00;95913.91;1284236;23;20028;-72
2021/03/05 00:03:02;;;;;;;22.03;13.90;;;;;;;5.43;100.00;95913.91;1284383;23;19989;-72
2021/03/05 00:03:32;;;;;;;20.10;13.15;;;;;;;5.42;100.00;95909.63;1284408;23;20001;-72
2021/03/05 00:04:03;;;;;;;21.00;13.30;;;;;;;5.42;100.00;95912.28;1284361;23;20044;-72
2021/03/05 00:04:33;;;;;;;21.40;13.47;;;;;;;5.42;100.00;95907.78;1284442;23;20437;-72
2021/03/05 00:05:05;;;;;;;20.37;13.70;;;;;;;5.44;100.00;95911.03;1284449;23;20088;-72
2021/03/05 00:05:37;;;;;;;18.90;13.85;;;;;;;5.45;100.00;95909.16;1284459;23;20032;-72
2021/03/05 00:06:07;;;;;;;25.88;14.27;;;;;;;5.45;100.00;95911.81;1284443;23;19997;-73
2021/03/05 00:06:37;;;;;;;19.07;13.97;;;;;;;5.43;100.00;95912.06;1284371;23;20004;-71
2021/03/05 00:07:08;;;;;;;24.60;14.73;;;;;;;5.42;100.00;95907.78;1284493;23;19997;-72
2021/03/05 00:07:38;;;;;;;21.07;14.37;;;;;;;5.42;100.00;95907.78;1284346;23;20043;-73
2021/03/05 00:08:10;;;;;;;23.87;14.87;;;;;;;5.41;100.00;95910.69;1283952;23;20079;-73
2021/03/05 00:08:40;;;;;;;20.85;14.48;;;;;;;5.41;100.00;95913.34;1284013;23;19996;-73
2021/03/05 00:09:11;;;;;;;21.93;14.40;;;;;;;5.43;100.00;95911.28;1284073;23;20004;-72
2021/03/05 00:09:41;;;;;;;23.87;14.20;;;;;;;5.42;100.00;95909.63;1284048;23;20446;-73
2021/03/05 00:10:14;;;;;;;20.53;14.07;;;;;;;5.43;100.00;95905.97;1284390;23;20070;-72
2021/03/05 00:10:45;;;;;;;19.25;14.40;;;;;;;5.43;100.00;95911.28;1284207;23;20171;-73
2021/03/05 00:11:15;;;;;;;20.40;13.87;;;;;;;5.42;100.00;95904.34;1284481;23;20004;-73
2021/03/05 00:11:46;;;;;;;20.77;14.40;;;;;;;5.41;100.00;95908.84;1284308;23;20414;-71
2021/03/05 00:12:16;;;;;;;24.87;15.37;;;;;;;5.45;100.00;95912.63;1284375;23;19996;-72
2021/03/05 00:12:47;;;;;;;19.83;15.23;;;;;;;5.47;100.00;95901.78;1284408;23;20092;-72
2021/03/05 00:13:17;;;;;;;21.97;14.43;;;;;;;5.44;100.00;95910.22;1284370;23;20005;-72
2021/03/05 00:13:48;;;;;;;21.10;14.43;;;;;;;5.44;100.00;95908.38;1284381;23;19996;-72
2021/03/05 00:14:18;;;;;;;21.33;14.20;;;;;;;5.46;100.00;95914.22;1284344;23;20239;-72
2021/03/05 00:14:49;;;;;;;19.47;14.07;;;;;;;5.50;100.00;95906.59;1284458;23;20007;-72
2021/03/05 00:15:20;;;;;;;25.13;15.70;;;;;;;5.50;100.00;95909.25;1284424;23;20005;-72
2021/03/05 00:15:51;;;;;;;23.55;14.27;;;;;;;5.54;100.00;95912.25;1284454;23;19996;-73
2021/03/05 00:16:21;;;;;;;20.17;13.70;;;;;;;5.53;100.00;95908.78;1284349;23;20020;-72
2021/03/05 00:16:52;;;;;;;20.03;13.13;;;;;;;5.51;100.00;95908.22;1284447;23;20318;-73
2021/03/05 00:17:22;;;;;;;19.10;13.03;;;;;;;5.48;100.00;95909.50;1284450;23;20308;-72
2021/03/05 00:17:53;;;;;;;21.40;14.03;;;;;;;5.47;100.00;95912.38;1284483;23;20419;-73
2021/03/05 00:18:23;;;;;;;20.97;13.93;;;;;;;5.46;100.00;95916.06;1284365;23;20418;-72
2021/03/05 00:18:53;;;;;;;21.07;13.93;;;;;;;5.51;100.00;95916.16;1284235;23;19997;-72
2021/03/05 00:19:24;;;;;;;21.10;13.63;;;;;;;5.54;100.00;95912.25;1284064;23;20000;-71
2021/03/05 00:19:54;;;;;;;23.17;14.03;;;;;;;5.53;100.00;95916.75;1284524;23;20003;-72
2021/03/05 00:20:26;;;;;;;19.60;12.33;;;;;;;5.51;100.00;95928.63;1284328;23;20093;-73
2021/03/05 00:20:56;;;;;;;16.75;11.52;;;;;;;5.55;100.00;95916.50;1284697;23;20495;-73
2021/03/05 00:21:27;;;;;;;18.37;12.53;;;;;;;5.53;100.00;95923.88;1284633;23;20027;-73
2021/03/05 00:21:57;;;;;;;19.47;13.17;;;;;;;5.53;100.00;95923.88;1284712;23;20001;-73
2021/03/05 00:22:28;;;;;;;17.50;11.07;;;;;;;5.53;100.00;95923.88;1284550;23;20338;-73
2021/03/05 00:22:58;;;;;;;17.23;10.67;;;;;;;5.48;100.00;95920.09;1284728;23;20322;-73
2021/03/05 00:23:29;;;;;;;16.80;11.80;;;;;;;5.46;100.00;95919.53;1284732;23;20000;-73
2021/03/05 00:23:59;;;;;;;19.90;11.87;;;;;;;5.46;100.00;95921.38;1284618;23;19996;-73
2021/03/05 00:24:29;;;;;;;16.77;10.87;;;;;;;5.47;100.00;95920.31;1284637;23;20000;-73
2021/03/05 00:25:00;;;;;;;15.90;10.60;;;;;;;5.43;100.00;95917.38;1284743;23;20004;-73
2021/03/05 00:25:30;;;;;;;14.40;10.97;;;;;;;5.47;100.00;95923.78;1284700;23;20001;-74
2021/03/05 00:26:01;;;;;;;16.70;11.00;;;;;;;5.51;100.00;95924.13;1284651;23;20008;-74
2021/03/05 00:26:31;;;;;;;17.07;10.57;;;;;;;5.51;100.00;95920.66;1284674;23;20339;-73
2021/03/05 00:27:02;;;;;;;14.33;10.70;;;;;;;5.52;100.00;95925.72;1284642;23;20009;-72
2021/03/05 00:27:32;;;;;;;14.67;10.13;;;;;;;5.49;100.00;95923.56;1284744;23;20032;-73
2021/03/05 00:28:03;;;;;;;16.03;10.77;;;;;;;5.50;100.00;95917.22;1284746;23;20005;-73
2021/03/05 00:28:33;;;;;;;13.40;9.53;;;;;;;5.49;100.00;95920.91;1290620;23;20091;-77
2021/03/05 00:29:04;;;;;;;15.63;10.53;;;;;;;5.50;100.00;95917.22;1290430;23;20050;-72
2021/03/05 00:29:34;;;;;;;14.87;10.50;;;;;;;5.49;100.00;95923.56;1290188;23;20051;-74
2021/03/05 00:30:06;;;;;;;15.47;10.50;;;;;;;5.51;100.00;95925.97;1290276;23;19996;-72
2021/03/05 00:30:36;;;;;;;16.50;10.45;;;;;;;5.51;100.00;95932.06;1284552;23;20418;-73
2021/03/05 00:31:06;;;;;;;15.40;10.13;;;;;;;5.48;100.00;95917.47;1284665;23;20023;-73
2021/03/05 00:31:37;;;;;;;16.37;10.50;;;;;;;5.47;100.00;95915.03;1284735;23;20001;-72
2021/03/05 00:32:07;;;;;;;15.37;10.43;;;;;;;5.49;100.00;95923.56;1284624;23;20000;-72
2021/03/05 00:32:38;;;;;;;16.33;10.50;;;;;;;5.50;100.00;95919.88;1284529;23;20326;-72
2021/03/05 00:33:08;;;;;;;15.97;10.30;;;;;;;5.48;100.00;95917.47;1284724;23;20000;-72
2021/03/05 00:33:39;;;;;;;14.67;10.70;;;;;;;5.49;100.00;95920.91;1284685;23;20016;-72
2021/03/05 00:34:09;;;;;;;15.80;10.10;;;;;;;5.49;100.00;95920.91;1284254;23;20004;-72
2021/03/05 00:34:40;;;;;;;15.37;10.67;;;;;;;5.48;100.00;95924.59;1284219;23;20051;-71
2021/03/05 00:35:11;;;;;;;13.90;11.03;;;;;;;5.49;100.00;95918.25;1284341;23;20000;-71
2021/03/05 00:35:41;;;;;;;13.93;10.45;;;;;;;5.51;100.00;95918.00;1284266;23;20004;-71
2021/03/05 00:36:12;;;;;;;15.80;11.10;;;;;;;5.50;100.00;95925.16;1284670;23;20012;-72
2021/03/05 00:36:42;;;;;;;17.23;10.23;;;;;;;5.51;100.00;95918.00;1284796;23;20001;-72
2021/03/05 00:37:13;;;;;;;19.93;11.67;;;;;;;5.50;100.00;95913.75;1284403;23;20080;-71
2021/03/05 00:37:43;;;;;;;15.30;11.07;;;;;;;5.51;100.00;95913.50;1284388;23;20419;-73
2021/03/05 00:38:14;;;;;;;16.93;11.13;;;;;;;5.52;100.00;95914.31;1284205;23;20005;-73
2021/03/05 00:38:44;;;;;;;20.33;12.73;;;;;;;5.47;100.00;95907.88;1284349;23;20001;-72
2021/03/05 00:39:15;;;;;;;17.90;11.10;;;;;;;5.46;100.00;95918.72;1284567;23;20000;-72
2021/03/05 00:39:45;;;;;;;17.73;11.83;;;;;;;5.44;100.00;95907.56;1284653;23;20000;-73
2021/03/05 00:40:16;;;;;;;15.83;11.07;;;;;;;5.45;100.00;95914.47;1284799;23;20005;-71
2021/03/05 00:40:47;;;;;;;16.90;11.07;;;;;;;5.42;100.00;95907.00;1290550;23;20001;-72
2021/03/05 00:41:17;;;;;;;15.47;11.27;;;;;;;5.43;100.00;95913.91;1290389;23;20525;-72
2021/03/05 00:41:47;;;;;;;18.30;11.93;;;;;;;5.43;100.00;95903.31;1290586;23;20000;-72
2021/03/05 00:42:18;;;;;;;16.63;11.87;;;;;;;5.43;100.00;95908.63;1290475;23;20005;-71
2021/03/05 00:42:49;;;;;;;15.57;11.43;;;;;;;5.43;100.00;95903.31;1284686;23;20002;-72
2021/03/05 00:43:20;;;;;;;19.47;11.73;;;;;;;5.38;100.00;95909.34;1284585;23;20068;-73
2021/03/05 00:43:51;;;;;;;19.23;11.48;;;;;;;5.41;100.00;95910.69;1284700;23;20008;-72
2021/03/05 00:44:21;;;;;;;20.20;11.43;;;;;;;5.42;100.00;95910.44;1284679;23;20314;-72
2021/03/05 00:44:52;;;;;;;19.37;11.40;;;;;;;5.43;100.00;95903.31;1284539;23;20008;-72
2021/03/05 00:45:22;;;;;;;18.50;11.57;;;;;;;5.42;100.00;95904.34;1284537;23;20000;-72
2021/03/05 00:45:53;;;;;;;18.17;12.10;;;;;;;5.43;100.00;95905.97;1284655;23;19997;-72
2021/03/05 00:46:23;;;;;;;15.77;11.03;;;;;;;5.44;100.00;95896.97;1284683;23;20012;-73
2021/03/05 00:46:54;;;;;;;20.37;12.50;;;;;;;5.44;100.00;95899.63;1284675;23;20024;-72
2021/03/05 00:47:24;;;;;;;18.97;11.63;;;;;;;5.42;100.00;95907.00;1284671;23;20016;-71
2021/03/05 00:47:55;;;;;;;17.23;11.60;;;;;;;5.42;100.00;95907.00;1284614;23;20055;-72
2021/03/05 00:48:25;;;;;;;15.70;11.77;;;;;;;5.39;100.00;95905.63;1284750;23;20007;-72
2021/03/05 00:48:56;;;;;;;22.00;12.10;;;;;;;5.41;100.00;95908.84;1284706;23;20025;-72
2021/03/05 00:49:26;;;;;;;18.83;12.33;;;;;;;5.41;100.00;95900.88;1284705;23;20005;-72
2021/03/05 00:49:57;;;;;;;14.47;11.53;;;;;;;5.39;100.00;95912.78;1284635;23;20004;-72
2021/03/05 00:50:27;;;;;;;18.83;11.77;;;;;;;5.41;100.00;95910.69;1284722;23;19997;-72
2021/03/05 00:50:58;;;;;;;20.33;12.83;;;;;;;5.39;100.00;95912.78;1284715;23;20005;-72
2021/03/05 00:51:28;;;;;;;16.57;11.60;;;;;;;5.41;100.00;95908.03;1284020;23;20458;-73
2021/03/05 00:51:59;;;;;;;19.50;11.57;;;;;;;5.45;100.00;95907.31;1284241;23;20047;-74
2021/03/05 00:52:29;;;;;;;18.10;11.57;;;;;;;5.43;100.00;95912.06;1284539;23;20004;-73
2021/03/05 00:52:59;;;;;;;16.00;11.63;;;;;;;5.42;100.00;95909.63;1284649;23;20000;-73
2021/03/05 00:53:30;;;;;;;15.43;11.10;;;;;;;5.36;100.00;95906.09;1284662;23;20055;-72
2021/03/05 00:54:00;;;;;;;15.93;11.67;;;;;;;5.36;100.00;95910.59;1284481;23;19997;-72
2021/03/05 00:54:31;;;;;;;15.60;11.07;;;;;;;5.35;100.00;95906.34;1284556;23;20032;-72
2021/03/05 00:55:02;;;;;;;15.37;10.57;;;;;;;5.33;100.00;95914.53;1284563;23;20011;-74
2021/03/05 00:55:32;;;;;;;16.35;11.32;;;;;;;5.31;100.00;95910.50;1284762;23;20004;-72
2021/03/05 00:56:03;;;;;;;17.43;10.73;;;;;;;5.32;100.00;95912.91;1284529;23;20001;-72
2021/03/05 00:56:33;;;;;;;17.57;11.20;;;;;;;5.36;100.00;95913.25;1284739;23;20055;-83
2021/03/05 00:57:04;;;;;;;16.47;11.37;;;;;;;5.37;100.00;95917.50;1284364;23;20020;-75
2021/03/05 00:57:34;;;;;;;21.70;12.80;;;;;;;5.36;100.00;95915.91;1284498;23;20008;-70
2021/03/05 00:58:05;;;;;;;19.73;11.47;;;;;;;5.38;100.00;95921.78;1284540;23;20005;-70
2021/03/05 00:58:35;;;;;;;18.30;11.03;;;;;;;5.36;100.00;95907.94;1284687;23;20004;-71
2021/03/05 00:59:06;;;;;;;17.33;11.40;;;;;;;5.35;100.00;95909.78;1284624;23;20410;-71
2021/03/05 00:59:36;;;;;;;18.30;11.03;;;;;;;5.34;100.00;95918.78;1284985;23;20374;-70
2021/03/05 01:00:09;;;;;;;16.80;11.27;;;;;;;5.35;100.00;95911.66;1285072;23;20306;-70
2021/03/05 01:00:40;;;;;;;18.08;11.10;;;;;;;5.37;100.00;95909.56;1285163;23;19997;-70
2021/03/05 01:01:10;;;;;;;17.43;11.57;;;;;;;5.36;100.00;95910.59;1285033;23;20373;-70
2021/03/05 01:01:41;;;;;;;17.93;11.70;;;;;;;5.38;100.00;95906.69;1285100;23;20414;-70
2021/03/05 01:02:11;;;;;;;19.07;11.23;;;;;;;5.38;100.00;95903.22;1285039;23;20001;-71
2021/03/05 01:02:42;;;;;;;16.17;10.50;;;;;;;5.36;100.00;95902.66;1284851;23;20418;-70
2021/03/05 01:03:12;;;;;;;14.33;10.83;;;;;;;5.36;100.00;95903.44;1284682;23;20485;-69
2021/03/05 01:03:42;;;;;;;16.30;10.60;;;;;;;5.38;100.00;95911.19;1284734;23;20089;-69
2021/03/05 01:04:13;;;;;;;17.57;10.70;;;;;;;5.36;100.00;95914.06;1284357;23;20012;-69
2021/03/05 01:04:43;;;;;;;14.53;11.10;;;;;;;5.38;100.00;95911.19;1284744;23;20012;-69
2021/03/05 01:05:14;;;;;;;17.57;10.87;;;;;;;5.38;100.00;95906.69;1284619;23;20048;-69
2021/03/05 01:05:44;;;;;;;16.17;11.10;;;;;;;5.34;100.00;95916.16;1284964;23;20001;-70
2021/03/05 01:06:15;;;;;;;16.63;10.17;;;;;;;5.36;100.00;95910.59;1284981;23;20007;-70
2021/03/05 01:06:45;;;;;;;16.03;10.97;;;;;;;5.34;100.00;95910.84;1285069;23;20008;-70
2021/03/05 01:07:15;;;;;;;16.87;11.47;;;;;;;5.37;100.00;95907.69;1285068;23;20001;-69
2021/03/05 01:07:46;;;;;;;14.00;10.57;;;;;;;5.36;100.00;95905.28;1285023;23;20011;-70
2021/03/05 01:08:16;;;;;;;13.27;9.87;;;;;;;5.33;100.00;95909.25;1284832;23;20426;-70
2021/03/05 01:08:47;;;;;;;15.00;9.77;;;;;;;5.37;100.00;95912.19;1284917;23;20004;-70
2021/03/05 01:09:18;;;;;;;14.13;9.60;;;;;;;5.35;100.00;95904.50;1285118;23;20031;-71
2021/03/05 01:09:49;;;;;;;13.83;9.83;;;;;;;5.36;100.00;95908.75;1285016;23;19993;-71
2021/03/05 01:10:20;;;;;;;14.65;9.80;;;;;;;5.35;100.00;95909.00;1284964;23;20239;-70
2021/03/05 01:10:50;;;;;;;18.57;10.70;;;;;;;5.36;100.00;95903.44;1285077;23;20486;-70
2021/03/05 01:11:20;;;;;;;14.50;10.00;;;;;;;5.35;100.00;95903.69;1284583;23;20005;-69
2021/03/05 01:11:51;;;;;;;14.37;8.30;;;;;;;5.36;100.00;95910.59;1285053;23;20004;-69
2021/03/05 01:12:22;;;;;;;14.03;10.10;;;;;;;5.35;100.00;95911.66;1284962;23;20000;-69
2021/03/05 01:12:52;;;;;;;13.10;8.87;;;;;;;5.33;100.00;95909.25;1285222;23;20602;-69
2021/03/05 01:13:22;;;;;;;11.57;8.63;;;;;;;5.35;100.00;95911.66;1284954;23;20003;-70
2021/03/05 01:13:53;;;;;;;17.87;9.60;;;;;;;5.36;100.00;95905.28;1285074;23;20322;-70
2021/03/05 01:14:23;;;;;;;14.80;9.60;;;;;;;5.37;100.00;95912.19;1284995;23;20450;-70
2021/03/05 01:14:54;;;;;;;13.10;8.93;;;;;;;5.36;100.00;95913.25;1285098;23;20096;-71
2021/03/05 01:15:24;;;;;;;12.03;8.80;;;;;;;5.37;100.00;95914.84;1284982;23;20075;-71
2021/03/05 01:15:55;;;;;;;12.03;9.63;;;;;;;5.39;100.00;95915.44;1284859;23;20484;-70
2021/03/05 01:16:25;;;;;;;13.77;8.43;;;;;;;5.32;100.00;95909.47;1284815;23;20001;-70
2021/03/05 01:16:56;;;;;;;11.73;8.53;;;;;;;5.32;100.00;95912.13;1285047;23;20001;-70
2021/03/05 01:17:26;;;;;;;12.47;8.43;;;;;;;5.33;100.00;95913.75;1284982;23;19997;-70
2021/03/05 01:17:56;;;;;;;12.67;8.30;;;;;;;5.33;100.00;95913.75;1285024;23;19997;-70
2021/03/05 01:18:27;;;;;;;12.03;7.40;;;;;;;5.32;100.00;95915.56;1284418;23;20008;-70
2021/03/05 01:18:57;;;;;;;12.77;8.13;;;;;;;5.28;100.00;95922.41;1284675;23;19996;-70
2021/03/05 01:19:28;;;;;;;10.67;7.47;;;;;;;5.28;100.00;95921.59;1284627;23;19996;-70
2021/03/05 01:19:58;;;;;;;11.50;7.60;;;;;;;5.27;100.00;95922.63;1284594;23;20026;-70
2021/03/05 01:20:29;;;;;;;11.47;8.27;;;;;;;5.26;100.00;95921.81;1284941;23;20041;-70
2021/03/05 01:20:59;;;;;;;11.83;8.43;;;;;;;5.28;100.00;95919.75;1285055;23;20418;-71
2021/03/05 01:21:30;;;;;;;11.27;8.43;;;;;;;5.29;100.00;95920.56;1284567;23;20354;-71
2021/03/05 01:22:00;;;;;;;13.00;8.50;;;;;;;5.28;100.00;95921.59;1284589;23;20000;-70
2021/03/05 01:22:31;;;;;;;13.60;8.43;;;;;;;5.28;100.00;95926.91;1284652;23;19997;-70
2021/03/05 01:23:01;;;;;;;11.40;8.17;;;;;;;5.28;100.00;95921.59;1284667;23;19997;-71
2021/03/05 01:23:32;;;;;;;12.83;7.97;;;;;;;5.29;100.00;95917.91;1284998;23;20001;-70
2021/03/05 01:24:02;;;;;;;12.20;8.17;;;;;;;5.30;100.00;95924.81;1284876;23;20007;-70
2021/03/05 01:24:33;;;;;;;11.57;7.73;;;;;;;5.30;100.00;95919.50;1284696;23;20497;-70
2021/03/05 01:25:05;;;;;;;11.33;7.97;;;;;;;5.29;100.00;95921.34;1284688;23;20008;-71
2021/03/05 01:25:36;;;;;;;11.55;7.93;;;;;;;5.28;100.00;95921.59;1284867;23;20000;-71
2021/03/05 01:26:09;;;;;;;12.40;7.93;;;;;;;5.29;100.00;95923.22;1285024;23;20000;-70
2021/03/05 01:26:40;;;;;;;13.73;8.40;;;;;;;5.31;100.00;95924.56;1285035;23;20001;-70
2021/03/05 01:27:11;;;;;;;11.05;7.35;;;;;;;5.28;100.00;95926.91;1285007;23;20000;-71
2021/03/05 01:27:41;;;;;;;10.43;8.07;;;;;;;5.31;100.00;95931.72;1284502;23;20001;-70
2021/03/05 01:28:12;;;;;;;11.27;8.00;;;;;;;5.31;100.00;95924.56;1284505;23;20011;-71
2021/03/05 01:28:45;;;;;;;10.10;7.88;;;;;;;5.31;100.00;95929.06;1284660;23;20540;-71
2021/03/05 01:29:16;;;;;;;10.32;7.78;;;;;;;5.35;100.00;95927.56;1284655;23;20000;-70
2021/03/05 01:29:46;;;;;;;11.90;7.53;;;;;;;5.32;100.00;95926.16;1285068;23;20001;-70
2021/03/05 01:30:17;;;;;;;12.23;8.00;;;;;;;5.35;100.00;95923.06;1284956;23;20004;-71
2021/03/05 01:30:48;;;;;;;12.30;7.93;;;;;;;5.36;100.00;95919.34;1285079;23;20005;-71
2021/03/05 01:31:18;;;;;;;11.30;8.13;;;;;;;5.37;100.00;95918.31;1284949;23;20000;-71
2021/03/05 01:31:48;;;;;;;13.73;7.50;;;;;;;5.39;100.00;95918.09;1291033;23;20000;-70
2021/03/05 01:32:19;;;;;;;9.83;7.43;;;;;;;5.42;100.00;95922.91;1290889;23;20004;-70
2021/03/05 01:32:49;;;;;;;11.53;7.50;;;;;;;5.41;100.00;95919.44;1290953;23;20392;-71
2021/03/05 01:33:20;;;;;;;12.17;7.97;;;;;;;5.38;100.00;95919.13;1290798;23;20425;-71
2021/03/05 01:33:50;;;;;;;10.67;7.50;;;;;;;5.38;100.00;95919.94;1284322;23;20011;-70
2021/03/05 01:34:21;;;;;;;10.67;8.27;;;;;;;5.37;100.00;95920.94;1284514;23;19993;-70
2021/03/05 01:34:51;;;;;;;9.90;6.83;;;;;;;5.39;100.00;95920.72;1284541;23;20000;-70
2021/03/05 01:35:23;;;;;;;14.07;7.43;;;;;;;5.37;100.00;95914.84;1284252;23;19992;-70
2021/03/05 01:35:54;;;;;;;9.43;6.95;;;;;;;5.35;100.00;95915.09;1285033;23;20029;-70
2021/03/05 01:36:24;;;;;;;9.00;6.53;;;;;;;5.36;100.00;95921.19;1285047;23;20329;-71
2021/03/05 01:36:54;;;;;;;10.80;6.73;;;;;;;5.35;100.00;95911.66;1285063;23;19997;-71
2021/03/05 01:37:25;;;;;;;11.97;7.03;;;;;;;5.33;100.00;95906.59;1284462;23;20016;-71
2021/03/05 01:37:55;;;;;;;10.07;6.40;;;;;;;5.35;100.00;95919.59;1284667;23;20003;-70
2021/03/05 01:38:26;;;;;;;10.13;7.10;;;;;;;5.33;100.00;95914.53;1284651;23;20035;-70
2021/03/05 01:38:57;;;;;;;9.60;7.13;;;;;;;5.33;100.00;95909.25;1284503;23;20409;-71
2021/03/05 01:39:27;;;;;;;9.27;7.03;;;;;;;5.36;100.00;95918.56;1284957;23;19996;-71
2021/03/05 01:39:57;;;;;;;7.60;6.33;;;;;;;5.32;100.00;95912.91;1284429;23;19996;-71
2021/03/05 01:40:35;;;;;;;11.80;7.20;;;;;;;5.29;100.00;95917.91;1284264;23;20059;-71
2021/03/05 01:41:06;;;;;;;9.43;6.80;;;;;;;5.29;100.00;95923.22;1284458;23;19997;-70
2021/03/05 01:41:37;;;;;;;10.73;6.93;;;;;;;5.27;100.00;95922.63;1284540;23;20000;-71
2021/03/05 01:42:07;;;;;;;9.23;6.65;;;;;;;5.28;100.00;95926.91;1285050;23;20421;-71
2021/03/05 01:42:38;;;;;;;9.20;6.80;;;;;;;5.24;100.00;95917.81;1284901;23;19996;-71
2021/03/05 01:43:08;;;;;;;9.63;7.40;;;;;;;5.25;100.00;95916.78;1284946;23;20050;-71
2021/03/05 01:43:39;;;;;;;11.30;7.07;;;;;;;5.27;100.00;95914.66;1284994;23;20008;-70
2021/03/05 01:44:11;;;;;;;10.23;6.67;;;;;;;5.27;100.00;95918.13;1284906;23;19996;-70
2021/03/05 01:44:41;;;;;;;8.75;6.70;;;;;;;5.24;100.00;95920.47;1285022;23;19993;-71
2021/03/05 01:45:13;;;;;;;9.43;6.87;;;;;;;5.27;100.00;95920.78;1284763;23;19996;-71
2021/03/05 01:45:44;;;;;;;10.45;7.45;;;;;;;5.25;100.00;95919.41;1285062;23;20042;-71
2021/03/05 01:46:16;;;;;;;11.15;7.40;;;;;;;5.24;100.00;95915.16;1284963;23;19996;-71
2021/03/05 01:46:46;;;;;;;9.65;6.50;;;;;;;5.24;100.00;95917.81;1285025;23;20016;-71
2021/03/05 01:47:17;;;;;;;10.07;7.13;;;;;;;5.20;100.00;95912.97;1284749;23;20414;-71
2021/03/05 01:47:49;;;;;;;10.30;7.23;;;;;;;5.23;100.00;95914.38;1284861;23;19996;-70
2021/03/05 01:48:22;;;;;;;10.60;7.60;;;;;;;5.25;100.00;95911.47;1284898;23;20377;-71
2021/03/05 01:48:52;;;;;;;10.95;7.75;;;;;;;5.30;100.00;95924.81;1284969;23;20035;-70
2021/03/05 01:49:23;;;;;;;10.90;7.07;;;;;;;5.26;100.00;95916.53;1284951;23;20003;-71
2021/03/05 01:49:53;;;;;;;10.40;7.17;;;;;;;5.25;100.00;95914.91;1284883;23;20051;-71
2021/03/05 01:50:26;;;;;;;11.47;7.20;;;;;;;5.25;100.00;95911.47;1284381;23;20007;-71
2021/03/05 01:51:05;;;;;;;9.15;6.97;;;;;;;5.18;100.00;95917.72;1284653;23;20035;-70
2021/03/05 01:51:36;;;;;;;11.60;6.72;;;;;;;5.21;100.00;95911.13;1284503;23;20369;-70
2021/03/05 01:52:06;;;;;;;10.02;6.95;;;;;;;5.21;100.00;95925.19;1284685;23;20027;-70
2021/03/05 01:52:44;;;;;;;9.87;6.83;;;;;;;5.24;100.00;95912.50;1284830;23;20415;-70
2021/03/05 01:53:14;;;;;;;8.50;6.68;;;;;;;5.20;100.00;95915.63;1284931;23;19993;-70
2021/03/05 01:53:45;;;;;;;9.63;6.87;;;;;;;5.21;100.00;95919.06;1284914;23;20019;-70
2021/03/05 01:54:15;;;;;;;9.43;6.73;;;;;;;5.23;100.00;95922.31;1285006;23;19999;-70
2021/03/05 01:54:46;;;;;;;8.00;6.80;;;;;;;5.22;100.00;95923.34;1284313;23;19992;-70
2021/03/05 01:55:16;;;;;;;9.73;7.00;;;;;;;5.26;100.00;95924.47;1284545;23;20075;-70
2021/03/05 01:55:47;;;;;;;10.20;6.80;;;;;;;5.26;100.00;95919.16;1284454;23;20003;-70
2021/03/05 01:56:30;;;;;;;9.87;7.17;;;;;;;5.31;100.00;95921.09;1284581;23;19992;-70
2021/03/05 01:57:01;;;;;;;8.88;7.13;;;;;;;5.29;100.00;95917.91;1284773;23;19997;-70
2021/03/05 01:57:31;;;;;;;9.20;7.30;;;;;;;5.30;100.00;95916.84;1284753;23;20012;-70
2021/03/05 01:58:02;;;;;;;9.57;6.73;;;;;;;5.27;100.00;95923.41;1284519;23;20012;-70
2021/03/05 01:58:32;;;;;;;8.70;6.60;;;;;;;5.26;100.00;95921.81;1284602;23;20021;-70
2021/03/05 01:59:05;;;;;;;9.73;6.23;;;;;;;5.24;100.00;95915.97;1284556;23;19997;-71
2021/03/05 01:59:35;;;;;;;9.38;7.18;;;;;;;5.25;100.00;95917.56;1284668;23;19997;-70
2021/03/05 02:00:07;;;;;;;8.73;7.10;;;;;;;5.25;100.00;95920.22;1290716;23;19996;-70
2021/03/05 02:00:47;;;;;;;9.68;6.97;;;;;;;5.26;100.00;95916.53;1290840;23;20062;-70
2021/03/05 02:01:17;;;;;;;9.52;7.20;;;;;;;5.28;100.00;95918.94;1278365;23;20339;-70
2021/03/05 02:01:48;;;;;;;9.63;7.43;;;;;;;5.29;100.00;95913.41;1278299;23;20019;-70
2021/03/05 02:02:18;;;;;;;11.07;7.80;;;;;;;5.32;100.00;95918.22;1271962;23;20001;-70
2021/03/05 02:02:49;;;;;;;9.87;6.93;;;;;;;5.29;100.00;95908.09;1272656;23;19997;-70
2021/03/05 02:03:19;;;;;;;11.13;7.70;;;;;;;5.30;100.00;95916.84;1278307;23;20001;-71
2021/03/05 02:03:49;;;;;;;10.73;7.23;;;;;;;5.24;100.00;95912.50;1278300;23;20020;-70
2021/03/05 02:04:20;;;;;;;9.50;7.50;;;;;;;5.21;100.00;95916.44;1284018;23;20030;-70
2021/03/05 02:04:50;;;;;;;10.03;6.77;;;;;;;5.21;100.00;95911.94;1284351;23;20004;-70
2021/03/05 02:05:21;;;;;;;10.83;7.57;;;;;;;5.24;100.00;95917.81;1284297;23;20008;-70
2021/03/05 02:05:51;;;;;;;8.97;6.73;;;;;;;5.24;100.00;95915.16;1284308;23;20565;-70
2021/03/05 02:06:22;;;;;;;10.80;7.77;;;;;;;5.24;100.00;95912.50;1278050;23;20077;-70
2021/03/05 02:06:53;;;;;;;10.07;6.70;;;;;;;5.21;100.00;95913.78;1271846;23;20025;-70
2021/03/05 02:07:23;;;;;;;9.30;7.03;;;;;;;5.20;100.00;95910.31;1271862;23;20008;-71
2021/03/05 02:07:53;;;;;;;8.50;6.73;;;;;;;5.22;100.00;95913.56;1272155;23;20005;-71
2021/03/05 02:08:24;;;;;;;8.93;7.10;;;;;;;5.25;100.00;95914.13;1284325;23;20007;-71
2021/03/05 02:08:54;;;;;;;8.83;6.63;;;;;;;5.22;100.00;95910.91;1284657;23;20031;-71
2021/03/05 02:09:25;;;;;;;12.00;7.50;;;;;;;5.23;100.00;95909.06;1284733;23;20001;-71
2021/03/05 02:09:55;;;;;;;11.10;7.57;;;;;;;5.28;100.00;95905.72;1284548;23;20004;-71
2021/03/05 02:10:26;;;;;;;10.63;7.03;;;;;;;5.24;100.00;95905.38;1284383;23;20055;-71
2021/03/05 02:10:56;;;;;;;10.77;7.03;;;;;;;5.27;100.00;95904.88;1284241;23;20000;-70
2021/03/05 02:11:26;;;;;;;10.43;7.00;;;;;;;5.27;100.00;95909.38;1284170;23;20000;-71
2021/03/05 02:11:57;;;;;;;11.10;7.80;;;;;;;5.26;100.00;95903.28;1278135;23;20004;-71
2021/03/05 02:12:28;;;;;;;11.45;8.18;;;;;;;5.27;100.00;95902.22;1278298;23;20004;-71
2021/03/05 02:12:58;;;;;;;10.47;7.70;;;;;;;5.26;100.00;95903.28;1278335;23;20008;-71
2021/03/05 02:13:29;;;;;;;10.97;8.40;;;;;;;5.30;100.00;95906.25;1284524;23;19997;-71
2021/03/05 02:14:04;;;;;;;12.10;7.97;;;;;;;5.32;100.00;95904.16;1284764;23;20047;-71
2021/03/05 02:14:34;;;;;;;11.25;8.27;;;;;;;5.30;100.00;95903.59;1284819;23;20306;-71
2021/03/05 02:15:05;;;;;;;11.23;8.07;;;;;;;5.28;100.00;95903.06;1284786;23;20000;-71
2021/03/05 02:15:37;;;;;;;11.82;8.20;;;;;;;5.29;100.00;95904.66;1284746;23;20095;-70
2021/03/05 02:16:13;;;;;;;12.50;9.05;;;;;;;5.32;100.00;95906.81;1284502;23;20334;-71
2021/03/05 02:17:05;;;;;;;13.32;8.25;;;;;;;5.33;100.00;95906.59;1278178;23;20004;-71
2021/03/05 02:17:45;;;;;;;13.05;8.40;;;;;;;5.31;100.00;95900.72;1278302;23;20091;-71
2021/03/05 02:18:40;;;;;;;11.25;8.32;;;;;;;5.22;100.00;95905.63;1272192;23;20080;-71
2021/03/05 02:19:29;;;;;;;11.43;8.90;;;;;;;5.29;100.00;95907.31;1272851;23;19994;-71
2021/03/05 02:20:21;;;;;;;13.02;8.73;;;;;;;5.26;100.00;95905.13;1281109;23;20023;-70
2021/03/05 02:21:06;;;;;;;10.20;8.38;;;;;;;5.28;100.00;95903.84;1280069;23;20004;-70
2021/03/05 02:22:18;;;;;;;11.98;8.73;;;;;;;5.28;100.00;95903.84;1278240;23;20008;-70
2021/03/05 02:22:51;;;;;;;14.98;8.75;;;;;;;5.28;100.00;95901.22;1271818;23;20005;-71
2021/03/05 02:23:59;;;;;;;13.05;9.10;;;;;;;5.29;100.00;95902.00;1280823;23;20015;-71
2021/03/05 02:24:48;;;;;;;16.45;9.10;;;;;;;5.28;100.00;95901.22;1284634;23;20016;-71
2021/03/05 02:26:00;;;;;;;15.98;9.50;;;;;;;5.31;100.00;95906.00;1289881;23;20003;-71
2021/03/05 02:27:14;;;;;;;14.65;10.27;;;;;;;5.27;100.00;95899.56;1270171;23;20006;-71
2021/03/05 02:28:26;;;;;;;13.95;9.10;;;;;;;5.27;100.00;95909.38;1270763;23;20446;-70